createdAt,value
2022-09-28T00:01:27.080Z,100.00
2022-09-28T00:03:59.662Z,100.00
2022-09-28T00:06:30.127Z,100.00
2022-09-28T00:08:58.520Z,100.00
2022-09-28T00:11:28.179Z,100.00
2022-09-28T00:14:01.866Z,100.00
2022-09-28T00:16:33.211Z,100.00
2022-09-28T00:19:00.384Z,100.00
2022-09-28T00:21:32.645Z,100.00
2022-09-28T00:24:15.591Z,100.00
2022-09-28T00:26:51.733Z,100.00
2022-09-28T00:29:26.957Z,100.00
2022-09-28T00:32:03.316Z,100.00
2022-09-28T00:34:34.672Z,100.00
2022-09-28T00:37:04.106Z,100.00
2022-09-28T00:39:35.902Z,100.00
2022-09-28T00:42:05.533Z,100.00
2022-09-28T00:44:59.907Z,100.00
2022-09-28T00:47:41.497Z,100.00
2022-09-28T00:50:31.124Z,100.00
2022-09-28T00:53:09.312Z,100.00
2022-09-28T00:55:51.130Z,100.00
2022-09-28T00:58:25.520Z,100.00
2022-09-28T01:00:56.163Z,100.00
2022-09-28T01:03:23.732Z,100.00
2022-09-28T01:05:55.027Z,100.00
2022-09-28T01:08:25.336Z,100.00
2022-09-28T01:10:52.416Z,100.00
2022-09-28T01:13:23.511Z,100.00
2022-09-28T01:16:31.150Z,100.00
2022-09-28T01:19:52.511Z,100.00
2022-09-28T01:22:31.299Z,100.00
2022-09-28T01:25:17.465Z,100.00
2022-09-28T01:28:23.637Z,100.00
2022-09-28T01:31:15.951Z,100.00
2022-09-28T01:33:56.900Z,100.00
2022-09-28T01:36:48.086Z,100.00
2022-09-28T01:39:30.416Z,100.00
2022-09-28T01:42:08.496Z,100.00
2022-09-28T01:44:42.009Z,100.00
2022-09-28T01:47:17.771Z,100.00
2022-09-28T01:49:58.397Z,100.00
2022-09-28T01:52:40.549Z,100.00
2022-09-28T01:55:30.976Z,100.00
2022-09-28T01:58:18.993Z,100.00
2022-09-28T02:00:56.547Z,100.00
2022-09-28T02:03:48.800Z,100.00
2022-09-28T02:06:26.983Z,100.00
2022-09-28T02:09:00.387Z,100.00
2022-09-28T02:11:43.263Z,100.00
2022-09-28T02:14:16.274Z,100.00
2022-09-28T02:16:50.598Z,100.00
2022-09-28T02:19:25.947Z,100.00
2022-09-28T02:22:23.805Z,100.00
2022-09-28T02:25:10.338Z,100.00
2022-09-28T02:27:52.369Z,100.00
2022-09-28T02:30:19.510Z,100.00
2022-09-28T02:32:51.500Z,100.00
2022-09-28T02:35:19.684Z,100.00
2022-09-28T02:37:47.343Z,100.00
2022-09-28T02:40:14.343Z,100.00
2022-09-28T02:43:24.845Z,100.00
2022-09-28T02:46:37.433Z,100.00
2022-09-28T02:49:32.061Z,100.00
2022-09-28T02:52:23.044Z,100.00
2022-09-28T02:54:58.978Z,100.00
2022-09-28T02:57:46.311Z,100.00
2022-09-28T03:00:23.978Z,100.00
2022-09-28T03:03:45.182Z,100.00
2022-09-28T03:06:29.689Z,100.00
2022-09-28T03:09:19.466Z,100.00
2022-09-28T03:12:00.375Z,100.00
2022-09-28T03:14:27.432Z,100.00
2022-09-28T03:16:57.213Z,100.00
2022-09-28T03:19:32.432Z,100.00
2022-09-28T03:22:00.926Z,100.00
2022-09-28T03:24:27.813Z,100.00
2022-09-28T03:26:54.767Z,100.00
2022-09-28T03:29:22.787Z,100.00
2022-09-28T03:31:56.580Z,100.00
2022-09-28T03:34:23.513Z,100.00
2022-09-28T03:36:51.484Z,100.00
2022-09-28T03:39:18.457Z,100.00
2022-09-28T03:41:45.458Z,100.00
2022-09-28T03:44:12.809Z,100.00
2022-09-28T03:46:39.665Z,100.00
2022-09-28T03:49:10.376Z,100.00
2022-09-28T03:51:37.243Z,100.00
2022-09-28T03:54:04.968Z,100.00
2022-09-28T03:56:32.451Z,100.00
2022-09-28T03:58:59.337Z,100.00
2022-09-28T04:01:26.956Z,100.00
2022-09-28T04:03:58.010Z,100.00
2022-09-28T04:06:26.145Z,100.00
2022-09-28T04:08:53.101Z,100.00
2022-09-28T04:11:20.059Z,100.00
2022-09-28T04:13:50.379Z,100.00
2022-09-28T04:16:18.577Z,100.00
2022-09-28T04:18:54.759Z,100.00
2022-09-28T04:21:40.837Z,100.00
2022-09-28T04:24:11.308Z,100.00
2022-09-28T04:26:38.195Z,100.00
2022-09-28T04:29:17.221Z,100.00
2022-09-28T04:31:51.853Z,100.00
2022-09-28T04:34:22.955Z,100.00
2022-09-28T04:36:50.466Z,100.00
2022-09-28T04:39:19.313Z,100.00
2022-09-28T04:41:52.923Z,100.00
2022-09-28T04:44:19.705Z,100.00
2022-09-28T04:46:47.882Z,100.00
2022-09-28T04:49:29.890Z,100.00
2022-09-28T04:52:01.771Z,100.00
2022-09-28T04:54:28.586Z,100.00
2022-09-28T04:56:57.747Z,100.00
2022-09-28T04:59:24.889Z,100.00
2022-09-28T05:01:53.644Z,100.00
2022-09-28T05:04:25.586Z,100.00
2022-09-28T05:07:26.916Z,100.00
2022-09-28T05:09:55.247Z,100.00
2022-09-28T05:12:22.074Z,100.00
2022-09-28T05:14:48.919Z,100.00
2022-09-28T05:17:15.808Z,100.00
2022-09-28T05:20:09.374Z,100.00
2022-09-28T05:22:36.344Z,100.00
2022-09-28T05:25:05.591Z,100.00
2022-09-28T05:27:44.030Z,100.00
2022-09-28T05:30:26.357Z,100.00
2022-09-28T05:33:08.980Z,100.00
2022-09-28T05:35:47.855Z,100.00
2022-09-28T05:38:16.728Z,100.00
2022-09-28T05:40:43.783Z,100.00
2022-09-28T05:43:10.687Z,100.00
2022-09-28T05:45:38.328Z,100.00
2022-09-28T05:48:05.426Z,100.00
2022-09-28T05:50:32.270Z,100.00
2022-09-28T05:53:10.082Z,100.00
2022-09-28T05:55:38.202Z,100.00
2022-09-28T05:58:07.918Z,100.00
2022-09-28T06:00:36.516Z,100.00
2022-09-28T06:03:09.443Z,100.00
2022-09-28T06:05:39.348Z,100.00
2022-09-28T06:08:10.395Z,100.00
2022-09-28T06:10:38.928Z,100.00
2022-09-28T06:13:07.329Z,100.00
2022-09-28T06:15:36.427Z,100.00
2022-09-28T06:18:09.880Z,100.00
2022-09-28T06:20:42.281Z,100.00
2022-09-28T06:23:14.351Z,100.00
2022-09-28T06:25:41.335Z,100.00
2022-09-28T06:28:14.584Z,100.00
2022-09-28T06:30:43.826Z,100.00
2022-09-28T06:33:16.241Z,100.00
2022-09-28T06:35:43.260Z,100.00
2022-09-28T06:38:11.108Z,100.00
2022-09-28T06:40:38.958Z,100.00
2022-09-28T06:43:11.732Z,100.00
2022-09-28T06:45:57.031Z,100.00
2022-09-28T06:48:44.018Z,100.00
2022-09-28T06:51:15.060Z,100.00
2022-09-28T06:54:05.139Z,100.00
2022-09-28T06:56:48.126Z,100.00
2022-09-28T06:59:15.626Z,100.00
2022-09-28T07:01:42.566Z,100.00
2022-09-28T07:04:27.867Z,100.00
2022-09-28T07:07:14.982Z,100.00
2022-09-28T07:10:00.478Z,100.00
2022-09-28T07:13:05.361Z,100.00
2022-09-28T07:15:43.872Z,100.00
2022-09-28T07:18:13.558Z,100.00
2022-09-28T07:20:52.483Z,100.00
2022-09-28T07:23:20.977Z,100.00
2022-09-28T07:26:18.963Z,100.00
2022-09-28T07:29:07.250Z,100.00
2022-09-28T07:31:40.414Z,100.00
2022-09-28T07:34:39.810Z,100.00
2022-09-28T07:37:13.319Z,100.00
2022-09-28T07:39:59.311Z,100.00
2022-09-28T07:42:29.891Z,100.00
2022-09-28T07:44:58.274Z,100.00
2022-09-28T07:47:34.675Z,100.00
2022-09-28T07:50:21.273Z,100.00
2022-09-28T07:53:00.669Z,100.00
2022-09-28T07:55:54.578Z,100.00
2022-09-28T07:58:38.799Z,100.00
2022-09-28T08:01:24.058Z,100.00
2022-09-28T08:03:51.584Z,100.00
2022-09-28T08:06:19.030Z,100.00
2022-09-28T08:08:46.040Z,100.00
2022-09-28T08:11:20.704Z,100.00
2022-09-28T08:14:13.262Z,100.00
2022-09-28T08:16:54.757Z,100.00
2022-09-28T08:19:52.487Z,100.00
2022-09-28T08:22:20.261Z,100.00
2022-09-28T08:24:49.893Z,100.00
2022-09-28T08:27:18.376Z,100.00
2022-09-28T08:29:45.377Z,100.00
2022-09-28T08:32:31.131Z,100.00
2022-09-28T08:35:16.559Z,100.00
2022-09-28T08:38:11.604Z,100.00
2022-09-28T08:41:52.786Z,100.00
2022-09-28T08:44:48.181Z,100.00
2022-09-28T08:48:11.936Z,100.00
2022-09-28T08:51:31.483Z,100.00
2022-09-28T08:54:24.366Z,100.00
2022-09-28T08:57:32.117Z,100.00
2022-09-28T09:00:02.611Z,100.00
2022-09-28T09:02:39.655Z,100.00
2022-09-28T09:05:19.051Z,100.00
2022-09-28T09:08:35.057Z,100.00
2022-09-28T09:11:23.207Z,100.00
2022-09-28T09:14:20.876Z,100.00
2022-09-28T09:17:15.454Z,100.00
2022-09-28T09:20:33.971Z,100.00
2022-09-28T09:23:56.810Z,100.00
2022-09-28T09:26:38.569Z,100.00
2022-09-28T09:29:37.491Z,100.00
2022-09-28T09:32:17.205Z,100.00
2022-09-28T09:35:18.557Z,100.00
2022-09-28T09:38:58.120Z,100.00
2022-09-28T09:42:08.329Z,100.00
2022-09-28T09:45:32.629Z,100.00
2022-09-28T09:48:36.961Z,100.00
2022-09-28T09:51:19.630Z,100.00
2022-09-28T09:54:00.116Z,100.00
2022-09-28T09:56:45.090Z,100.00
2022-09-28T09:59:31.112Z,100.00
2022-09-28T10:02:35.377Z,100.00
2022-09-28T10:05:11.279Z,100.00
2022-09-28T10:08:02.976Z,99.70
2022-09-28T10:10:38.845Z,100.00
2022-09-28T10:13:11.572Z,100.00
2022-09-28T10:15:42.384Z,100.00
2022-09-28T10:18:21.361Z,100.00
2022-09-28T10:21:10.729Z,98.33
2022-09-28T10:24:03.945Z,96.11
2022-09-28T10:26:48.219Z,95.64
2022-09-28T10:29:25.184Z,96.87
2022-09-28T10:32:02.913Z,98.17
2022-09-28T10:34:35.517Z,98.19
2022-09-28T10:37:12.835Z,96.07
2022-09-28T10:40:00.065Z,98.08
2022-09-28T10:42:34.040Z,97.85
2022-09-28T10:45:23.764Z,93.71
2022-09-28T10:47:51.418Z,92.51
2022-09-28T10:50:28.044Z,93.80
2022-09-28T10:53:20.588Z,91.79
2022-09-28T10:56:06.064Z,92.85
2022-09-28T10:58:42.157Z,91.71
2022-09-28T11:01:23.114Z,91.90
2022-09-28T11:04:01.600Z,94.39
2022-09-28T11:06:38.709Z,88.81
2022-09-28T11:09:29.802Z,89.89
2022-09-28T11:12:04.482Z,89.04
2022-09-28T11:14:42.612Z,89.23
2022-09-28T11:17:40.487Z,90.96
2022-09-28T11:20:27.461Z,91.81
2022-09-28T11:23:20.458Z,91.38
2022-09-28T11:26:02.871Z,88.79
2022-09-28T11:28:35.906Z,91.90
2022-09-28T11:31:09.478Z,89.75
2022-09-28T11:33:47.866Z,84.00
2022-09-28T11:37:05.369Z,87.94
2022-09-28T11:40:04.649Z,87.71
2022-09-28T11:43:09.568Z,88.46
2022-09-28T11:45:59.286Z,85.33
2022-09-28T11:48:54.584Z,84.71
2022-09-28T11:51:30.300Z,84.66
2022-09-28T11:54:14.197Z,84.56
2022-09-28T11:56:48.645Z,85.68
2022-09-28T11:59:27.602Z,85.59
2022-09-28T12:02:03.749Z,86.08
2022-09-28T12:05:15.845Z,87.26
2022-09-28T12:08:17.536Z,85.66
2022-09-28T12:11:27.260Z,86.27
2022-09-28T12:14:30.963Z,80.96
2022-09-28T12:17:09.690Z,80.86
2022-09-28T12:19:50.655Z,79.14
2022-09-28T12:22:33.386Z,78.54
2022-09-28T12:25:05.462Z,80.31
2022-09-28T12:27:50.567Z,81.71
2022-09-28T12:30:21.963Z,83.74
2022-09-28T12:32:59.973Z,78.34
2022-09-28T12:36:12.919Z,74.59
2022-09-28T12:39:17.601Z,74.16
2022-09-28T12:42:16.890Z,76.34
2022-09-28T12:45:02.161Z,79.65
2022-09-28T12:48:22.560Z,80.23
2022-09-28T12:51:43.646Z,83.38
2022-09-28T12:54:34.581Z,87.05
2022-09-28T12:57:36.404Z,83.57
2022-09-28T13:00:17.705Z,83.77
2022-09-28T13:03:03.124Z,87.16
2022-09-28T13:06:26.407Z,93.13
2022-09-28T13:08:58.705Z,95.59
2022-09-28T13:11:45.367Z,100.00
2022-09-28T13:14:53.181Z,100.00
2022-09-28T13:17:44.868Z,100.00
2022-09-28T13:20:56.378Z,100.00
2022-09-28T13:23:37.772Z,100.00
2022-09-28T13:26:35.352Z,100.00
2022-09-28T13:29:14.214Z,100.00
2022-09-28T13:31:53.262Z,100.00
2022-09-28T13:34:26.255Z,100.00
2022-09-28T13:37:17.350Z,100.00
2022-09-28T13:39:44.060Z,100.00
2022-09-28T13:42:34.024Z,100.00
2022-09-28T13:45:03.605Z,100.00
2022-09-28T13:47:42.521Z,100.00
2022-09-28T13:50:27.492Z,100.00
2022-09-28T13:53:16.633Z,100.00
2022-09-28T13:56:35.410Z,100.00
2022-09-28T13:59:14.526Z,100.00
2022-09-28T14:01:55.903Z,100.00
2022-09-28T14:04:47.449Z,100.00
2022-09-28T14:07:46.557Z,100.00
2022-09-28T14:10:25.806Z,100.00
2022-09-28T14:12:54.293Z,100.00
2022-09-28T14:15:30.055Z,100.00
2022-09-28T14:18:36.758Z,100.00
2022-09-28T14:21:40.944Z,100.00
2022-09-28T14:24:30.231Z,100.00
2022-09-28T14:27:32.919Z,100.00
2022-09-28T14:30:13.999Z,100.00
2022-09-28T14:32:53.956Z,100.00
2022-09-28T14:35:31.746Z,100.00
2022-09-28T14:38:35.466Z,100.00
2022-09-28T14:41:18.060Z,100.00
2022-09-28T14:43:44.812Z,100.00
2022-09-28T14:46:11.649Z,100.00
2022-09-28T14:49:04.326Z,100.00
2022-09-28T14:51:31.042Z,100.00
2022-09-28T14:54:29.637Z,100.00
2022-09-28T14:57:17.301Z,100.00
2022-09-28T14:59:46.231Z,100.00
2022-09-28T15:02:38.464Z,100.00
2022-09-28T15:05:28.889Z,100.00
2022-09-28T15:07:56.089Z,100.00
2022-09-28T15:10:32.690Z,100.00
2022-09-28T15:13:03.392Z,100.00
2022-09-28T15:15:35.619Z,100.00
2022-09-28T15:18:33.439Z,100.00
2022-09-28T15:21:01.534Z,100.00
2022-09-28T15:23:36.914Z,100.00
2022-09-28T15:26:08.437Z,100.00
2022-09-28T15:28:44.955Z,100.00
2022-09-28T15:31:19.545Z,100.00
2022-09-28T15:34:05.147Z,100.00
2022-09-28T15:36:43.297Z,100.00
2022-09-28T15:39:25.692Z,100.00
2022-09-28T15:41:53.243Z,100.00
2022-09-28T15:44:36.226Z,100.00
2022-09-28T15:47:40.092Z,100.00
2022-09-28T15:50:32.993Z,100.00
2022-09-28T15:53:05.657Z,100.00
2022-09-28T15:55:42.392Z,100.00
2022-09-28T15:58:22.629Z,100.00
2022-09-28T16:01:23.603Z,100.00
2022-09-28T16:03:50.544Z,100.00
2022-09-28T16:06:17.622Z,100.00
2022-09-28T16:08:46.205Z,100.00
2022-09-28T16:11:26.212Z,100.00
2022-09-28T16:14:07.311Z,100.00
2022-09-28T16:16:48.609Z,100.00
2022-09-28T16:19:25.890Z,100.00
2022-09-28T16:21:58.979Z,100.00
2022-09-28T16:24:33.023Z,100.00
2022-09-28T16:27:14.275Z,100.00
2022-09-28T16:29:45.024Z,100.00
2022-09-28T16:32:26.765Z,100.00
2022-09-28T16:35:11.568Z,100.00
2022-09-28T16:37:43.302Z,100.00
2022-09-28T16:40:11.976Z,100.00
2022-09-28T16:42:49.071Z,100.00
2022-09-28T16:45:23.769Z,100.00
2022-09-28T16:47:52.370Z,100.00
2022-09-28T16:50:21.654Z,100.00
2022-09-28T16:53:40.342Z,100.00
2022-09-28T16:56:07.751Z,100.00
2022-09-28T16:58:36.541Z,100.00
2022-09-28T17:01:03.754Z,100.00
2022-09-28T17:03:30.766Z,100.00
2022-09-28T17:05:57.602Z,100.00
2022-09-28T17:08:25.591Z,100.00
2022-09-28T17:11:13.914Z,100.00
2022-09-28T17:13:43.665Z,100.00
2022-09-28T17:16:17.755Z,100.00
2022-09-28T17:18:46.044Z,100.00
2022-09-28T17:21:19.398Z,100.00
2022-09-28T17:23:49.211Z,100.00
2022-09-28T17:26:36.026Z,100.00
2022-09-28T17:29:02.940Z,100.00
2022-09-28T17:31:30.405Z,100.00
2022-09-28T17:33:57.481Z,100.00
2022-09-28T17:36:25.900Z,100.00
2022-09-28T17:38:52.748Z,100.00
2022-09-28T17:41:21.168Z,100.00
2022-09-28T17:43:48.959Z,100.00
2022-09-28T17:46:33.947Z,100.00
2022-09-28T17:49:05.585Z,100.00
2022-09-28T17:51:37.502Z,100.00
2022-09-28T17:54:07.023Z,100.00
2022-09-28T17:56:35.609Z,100.00
2022-09-28T17:59:06.640Z,100.00
2022-09-28T18:01:38.045Z,100.00
2022-09-28T18:04:08.827Z,100.00
2022-09-28T18:06:37.160Z,100.00
2022-09-28T18:09:05.275Z,100.00
2022-09-28T18:11:33.771Z,100.00
2022-09-28T18:14:00.997Z,100.00
2022-09-28T18:16:29.177Z,100.00
2022-09-28T18:18:56.490Z,100.00
2022-09-28T18:21:23.355Z,100.00
2022-09-28T18:23:50.191Z,100.00
2022-09-28T18:26:19.588Z,100.00
2022-09-28T18:28:46.952Z,100.00
2022-09-28T18:31:15.609Z,100.00
2022-09-28T18:33:52.451Z,100.00
2022-09-28T18:36:19.265Z,100.00
2022-09-28T18:38:46.063Z,100.00
2022-09-28T18:41:15.792Z,100.00
2022-09-28T18:43:49.142Z,100.00
2022-09-28T18:46:18.320Z,100.00
2022-09-28T18:48:47.646Z,100.00
2022-09-28T18:51:14.851Z,100.00
2022-09-28T18:53:42.187Z,100.00
2022-09-28T18:56:13.124Z,100.00
2022-09-28T18:58:42.224Z,100.00
2022-09-28T19:01:36.252Z,100.00
2022-09-28T19:04:07.110Z,100.00
2022-09-28T19:06:36.983Z,100.00
2022-09-28T19:09:04.383Z,100.00
2022-09-28T19:11:31.243Z,100.00
2022-09-28T19:13:58.080Z,100.00
2022-09-28T19:16:28.749Z,100.00
2022-09-28T19:18:57.929Z,100.00
2022-09-28T19:21:25.560Z,100.00
2022-09-28T19:23:55.025Z,100.00
2022-09-28T19:26:26.897Z,100.00
2022-09-28T19:28:57.341Z,100.00
2022-09-28T19:31:26.526Z,100.00
2022-09-28T19:33:53.370Z,100.00
2022-09-28T19:36:24.218Z,100.00
2022-09-28T19:38:53.211Z,100.00
2022-09-28T19:41:47.529Z,100.00
2022-09-28T19:44:24.740Z,100.00
2022-09-28T19:46:56.213Z,100.00
2022-09-28T19:49:25.962Z,100.00
2022-09-28T19:52:15.179Z,100.00
2022-09-28T19:54:56.678Z,100.00
2022-09-28T19:57:31.697Z,100.00
2022-09-28T20:00:02.793Z,100.00
2022-09-28T20:02:34.846Z,100.00
2022-09-28T20:05:02.095Z,100.00
2022-09-28T20:07:32.775Z,100.00
2022-09-28T20:09:59.643Z,100.00
2022-09-28T20:12:26.439Z,100.00
2022-09-28T20:14:53.267Z,100.00
2022-09-28T20:17:21.681Z,100.00
2022-09-28T20:19:51.108Z,100.00
2022-09-28T20:22:18.593Z,100.00
2022-09-28T20:24:45.521Z,100.00
2022-09-28T20:27:12.274Z,100.00
2022-09-28T20:29:39.070Z,100.00
2022-09-28T20:32:05.916Z,100.00
2022-09-28T20:34:34.003Z,100.00
2022-09-28T20:37:01.429Z,100.00
2022-09-28T20:39:28.265Z,100.00
2022-09-28T20:41:56.003Z,100.00
2022-09-28T20:44:22.796Z,100.00
2022-09-28T20:46:51.569Z,100.00
2022-09-28T20:49:18.362Z,100.00
2022-09-28T20:51:45.123Z,100.00
2022-09-28T20:54:11.953Z,100.00
2022-09-28T20:56:39.242Z,100.00
2022-09-28T20:59:12.484Z,100.00
2022-09-28T21:01:40.510Z,100.00
2022-09-28T21:04:10.227Z,100.00
2022-09-28T21:06:41.651Z,100.00
2022-09-28T21:09:10.983Z,100.00
2022-09-28T21:11:39.796Z,100.00
2022-09-28T21:14:09.608Z,100.00
2022-09-28T21:16:37.417Z,100.00
2022-09-28T21:19:04.554Z,100.00
2022-09-28T21:21:31.510Z,100.00
2022-09-28T21:23:59.051Z,100.00
2022-09-28T21:26:31.033Z,100.00
2022-09-28T21:29:01.462Z,100.00
2022-09-28T21:31:39.383Z,100.00
2022-09-28T21:34:06.983Z,100.00
2022-09-28T21:36:34.293Z,100.00
2022-09-28T21:39:01.060Z,100.00
2022-09-28T21:41:29.094Z,100.00
2022-09-28T21:43:56.144Z,100.00
2022-09-28T21:46:23.032Z,100.00
2022-09-28T21:48:53.747Z,100.00
2022-09-28T21:51:21.706Z,100.00
2022-09-28T21:53:49.251Z,100.00
2022-09-28T21:56:16.479Z,100.00
2022-09-28T21:58:43.291Z,100.00
2022-09-28T22:01:18.017Z,100.00
2022-09-28T22:03:48.900Z,100.00
2022-09-28T22:06:19.720Z,100.00
2022-09-28T22:08:47.877Z,100.00
2022-09-28T22:11:19.368Z,100.00
2022-09-28T22:13:52.518Z,100.00
2022-09-28T22:16:23.421Z,100.00
2022-09-28T22:18:51.005Z,100.00
2022-09-28T22:21:24.148Z,100.00
2022-09-28T22:23:51.354Z,100.00
2022-09-28T22:26:22.688Z,100.00
2022-09-28T22:28:56.398Z,100.00
2022-09-28T22:31:27.522Z,100.00
2022-09-28T22:33:55.185Z,100.00
2022-09-28T22:36:22.257Z,100.00
2022-09-28T22:38:49.853Z,100.00
2022-09-28T22:41:20.899Z,100.00
2022-09-28T22:43:50.151Z,100.00
2022-09-28T22:46:21.198Z,100.00
2022-09-28T22:48:51.986Z,100.00
2022-09-28T22:51:19.764Z,100.00
2022-09-28T22:53:49.551Z,100.00
2022-09-28T22:56:18.981Z,100.00
2022-09-28T22:58:47.307Z,100.00
2022-09-28T23:01:18.590Z,100.00
2022-09-28T23:03:47.007Z,100.00
2022-09-28T23:06:19.813Z,100.00
2022-09-28T23:08:48.131Z,100.00
2022-09-28T23:11:15.641Z,100.00
2022-09-28T23:13:56.309Z,100.00
2022-09-28T23:16:25.805Z,100.00
2022-09-28T23:18:55.133Z,100.00
2022-09-28T23:21:26.658Z,100.00
2022-09-28T23:24:01.548Z,100.00
2022-09-28T23:26:32.336Z,100.00
2022-09-28T23:29:00.336Z,100.00
2022-09-28T23:31:31.270Z,100.00
2022-09-28T23:34:07.196Z,100.00
2022-09-28T23:36:34.720Z,100.00
2022-09-28T23:39:03.107Z,100.00
2022-09-28T23:41:30.316Z,100.00
2022-09-28T23:43:57.387Z,100.00
2022-09-28T23:46:24.488Z,100.00
2022-09-28T23:48:51.604Z,100.00
2022-09-28T23:51:18.822Z,100.00
2022-09-28T23:53:46.160Z,100.00
2022-09-28T23:56:14.486Z,100.00
2022-09-28T23:58:41.367Z,100.00
